Řízení letového provozu České republiky
Letiste: LKVO Aktualizace: 22.07.2019 13:00:30  UTC
 METAR LKVO 22.07. 13:00 ...
METAR LKVO 221300Z 30005KT 230V360 CAVOK 28/12 Q1023=